Time;durP1;ratioP1;P1;durP2;ratioP2;P2;SDS_P1;SDS_P2;PMS_P1;PMS_P2;Temp;Humidity;BMP_temperature;BMP_pressure;BME280_temperature;BME280_humidity;BME280_pressure;Samples;Min_cycle;Max_cycle;Signal;HPM_P1;HPM_P2
2022/04/21 00:00:42;;;;;;;2.73;2.33;;;12.00;91.30;;;;;;7396485;19;20126;-77
2022/04/21 00:03:08;;;;;;;3.10;2.70;;;12.10;92.00;;;;;;7403531;19;20146;-83
2022/04/21 00:05:35;;;;;;;5.60;2.63;;;12.10;91.70;;;;;;7388657;19;20145;-81
2022/04/21 00:08:02;;;;;;;2.97;2.47;;;11.80;92.10;;;;;;7388850;19;20131;-82
2022/04/21 00:10:28;;;;;;;3.33;2.50;;;11.90;92.10;;;;;;7387855;19;20127;-77
2022/04/21 00:12:57;;;;;;;3.67;2.83;;;11.80;92.00;;;;;;7390813;19;20138;-82
2022/04/21 00:15:25;;;;;;;4.03;2.53;;;11.80;92.40;;;;;;7398769;19;20155;-77
2022/04/21 00:17:51;;;;;;;5.30;2.50;;;11.70;92.70;;;;;;7396934;19;20544;-77
2022/04/21 00:20:17;;;;;;;5.10;2.40;;;11.30;93.20;;;;;;7385378;19;20201;-77
2022/04/21 00:25:27;;;;;;;2.83;2.33;;;11.60;93.40;;;;;;7393063;19;20166;-78
2022/04/21 00:27:56;;;;;;;3.90;2.60;;;11.90;92.90;;;;;;7386273;19;20665;-79
2022/04/21 00:30:22;;;;;;;4.10;2.33;;;12.10;92.70;;;;;;7391016;19;20663;-81
2022/04/21 00:32:48;;;;;;;8.13;2.90;;;12.10;92.60;;;;;;7390778;19;20145;-77
2022/04/21 00:35:16;;;;;;;3.57;3.00;;;12.10;92.60;;;;;;7386909;19;20157;-77
2022/04/21 00:37:53;;;;;;;4.07;2.67;;;12.10;92.50;;;;;;7387381;19;20176;-83
2022/04/21 00:40:21;;;;;;;6.67;3.20;;;12.10;92.60;;;;;;7392264;19;20138;-84
2022/04/21 00:42:47;;;;;;;7.47;4.77;;;11.90;92.60;;;;;;7386824;19;20628;-82
2022/04/21 00:45:15;;;;;;;4.93;3.13;;;12.10;92.70;;;;;;7387595;19;20218;-82
2022/04/21 00:47:46;;;;;;;3.50;2.73;;;11.90;92.70;;;;;;7405881;19;20214;-78
2022/04/21 00:50:22;;;;;;;6.03;3.23;;;11.90;92.80;;;;;;7389820;19;20154;-78
2022/04/21 00:52:49;;;;;;;5.30;2.67;;;11.80;92.90;;;;;;7386686;19;20123;-82
2022/04/21 00:55:17;;;;;;;3.27;2.40;;;11.80;92.90;;;;;;7386398;19;20154;-77
2022/04/21 00:57:43;;;;;;;4.80;2.77;;;11.80;93.00;;;;;;7385117;19;20158;-78
2022/04/21 01:00:11;;;;;;;3.70;2.83;;;11.90;92.90;;;;;;7388258;19;20447;-83
2022/04/21 01:02:55;;;;;;;3.10;2.70;;;11.90;93.10;;;;;;7393397;19;20150;-77
2022/04/21 01:05:28;;;;;;;3.17;2.87;;;11.60;93.60;;;;;;7396183;19;20664;-77
2022/04/21 01:07:55;;;;;;;6.83;2.90;;;11.50;93.90;;;;;;7391345;19;20150;-81
2022/04/21 01:10:22;;;;;;;4.47;2.30;;;11.10;94.40;;;;;;7392198;19;20166;-82
2022/04/21 01:12:49;;;;;;;2.90;2.53;;;10.60;95.50;;;;;;7387829;19;20198;-78
2022/04/21 01:15:15;;;;;;;3.03;2.37;;;10.70;95.50;;;;;;7392710;19;20126;-78
2022/04/21 01:17:40;;;;;;;3.10;2.60;;;10.80;95.60;;;;;;7394965;19;20149;-78
2022/04/21 01:20:09;;;;;;;4.23;2.63;;;10.90;95.60;;;;;;7393736;19;20135;-84
2022/04/21 01:22:35;;;;;;;3.30;2.73;;;11.10;95.30;;;;;;7402015;19;20131;-83
2022/04/21 01:25:01;;;;;;;2.90;2.23;;;10.90;95.80;;;;;;7398529;19;20134;-81
2022/04/21 01:27:33;;;;;;;3.47;3.00;;;11.00;95.80;;;;;;7393602;19;20152;-85
2022/04/21 01:30:02;;;;;;;4.33;2.83;;;11.50;95.00;;;;;;7397286;19;20139;-78
2022/04/21 01:32:27;;;;;;;5.50;2.97;;;11.50;95.00;;;;;;7394860;19;20138;-77
2022/04/21 01:34:53;;;;;;;4.70;3.30;;;11.60;94.60;;;;;;7395269;19;20484;-82
2022/04/21 01:42:48;;;;;;;3.90;3.03;;;11.60;94.60;;;;;;7394392;19;20153;-82
2022/04/21 01:45:14;;;;;;;4.00;3.27;;;11.50;94.70;;;;;;7399027;19;20135;-80
2022/04/21 01:47:40;;;;;;;4.03;3.03;;;11.50;94.80;;;;;;7396654;19;20146;-83
2022/04/21 01:50:07;;;;;;;3.37;3.07;;;11.40;95.00;;;;;;7398083;19;20861;-83
2022/04/21 01:52:37;;;;;;;4.40;3.17;;;11.30;95.20;;;;;;7404418;19;20221;-84
2022/04/21 01:55:04;;;;;;;5.10;3.33;;;11.40;95.30;;;;;;7391823;19;20160;-82
2022/04/21 01:57:29;;;;;;;6.07;3.27;;;11.40;95.20;;;;;;7392002;19;20146;-77
2022/04/21 01:59:55;;;;;;;6.90;3.40;;;11.40;95.30;;;;;;7390818;19;20126;-83
2022/04/21 02:02:21;;;;;;;4.50;3.07;;;11.30;95.40;;;;;;7391950;19;20137;-78
2022/04/21 02:04:47;;;;;;;5.03;3.37;;;11.20;95.70;;;;;;7398369;19;20700;-78
2022/04/21 02:07:14;;;;;;;4.60;3.40;;;11.40;95.80;;;;;;7394073;19;20250;-78
2022/04/21 02:09:40;;;;;;;5.77;3.53;;;11.30;95.70;;;;;;7393462;19;20594;-83
2022/04/21 02:12:06;;;;;;;4.30;2.93;;;11.00;96.20;;;;;;7403942;19;20135;-78
2022/04/21 02:14:33;;;;;;;4.40;2.87;;;11.10;96.20;;;;;;7393355;19;20807;-84
2022/04/21 02:16:59;;;;;;;3.87;2.90;;;10.80;96.80;;;;;;7389763;19;20143;-77
2022/04/21 02:19:25;;;;;;;6.90;3.30;;;10.60;97.40;;;;;;7388115;19;20781;-83
2022/04/21 02:21:51;;;;;;;4.00;3.40;;;10.60;97.50;;;;;;7393456;19;20134;-84
2022/04/21 02:24:17;;;;;;;4.47;3.20;;;10.70;97.60;;;;;;7395470;19;20134;-81
2022/04/21 02:26:42;;;;;;;5.17;3.27;;;10.70;97.60;;;;;;7388998;19;20137;-84
2022/04/21 02:29:08;;;;;;;4.53;3.47;;;10.90;97.30;;;;;;7402591;19;20152;-82
2022/04/21 02:31:34;;;;;;;4.43;3.70;;;11.00;97.30;;;;;;7395303;19;20139;-84
2022/04/21 02:34:00;;;;;;;4.03;3.33;;;10.70;97.70;;;;;;7393913;19;20127;-77
2022/04/21 02:36:25;;;;;;;4.60;3.40;;;10.60;98.00;;;;;;7389642;19;20172;-83
2022/04/21 02:38:51;;;;;;;4.10;3.20;;;10.60;98.20;;;;;;7392977;19;20591;-78
2022/04/21 02:41:17;;;;;;;5.33;3.50;;;10.60;98.70;;;;;;7388918;19;20137;-77
2022/04/21 02:43:43;;;;;;;3.90;3.10;;;10.40;98.80;;;;;;7388260;19;20154;-77
2022/04/21 02:46:09;;;;;;;4.50;3.30;;;10.50;98.70;;;;;;7400027;19;20739;-78
2022/04/21 02:48:35;;;;;;;3.97;2.70;;;10.50;98.90;;;;;;7398861;19;20131;-76
2022/04/21 02:51:01;;;;;;;5.97;3.50;;;10.50;99.30;;;;;;7389718;19;20130;-84
2022/04/21 02:59:00;;;;;;;4.20;3.40;;;10.90;98.30;;;;;;7389472;19;20207;-81
2022/04/21 03:01:26;;;;;;;6.27;4.07;;;10.60;98.60;;;;;;7390245;19;20138;-77
2022/04/21 03:03:54;;;;;;;5.73;3.90;;;10.50;98.90;;;;;;7390700;19;20142;-77
2022/04/21 03:06:20;;;;;;;4.30;3.90;;;10.50;99.20;;;;;;7394556;19;20138;-83
2022/04/21 03:08:46;;;;;;;4.77;3.57;;;10.30;99.60;;;;;;7395856;19;20131;-83
2022/04/21 03:11:12;;;;;;;4.80;3.73;;;10.20;99.80;;;;;;7396541;19;20198;-83
2022/04/21 03:13:38;;;;;;;4.43;3.50;;;10.10;99.90;;;;;;7389073;19;20160;-76
2022/04/21 03:16:04;;;;;;;5.73;3.20;;;9.90;99.90;;;;;;7389261;19;20136;-84
2022/04/21 03:18:29;;;;;;;5.03;3.50;;;9.90;99.90;;;;;;7389400;19;20150;-83
2022/04/21 03:26:25;;;;;;;5.43;4.07;;;10.30;99.90;;;;;;7387044;19;20131;-84
2022/04/21 03:28:51;;;;;;;4.40;3.97;;;10.20;99.90;;;;;;7388681;19;20139;-81
2022/04/21 03:31:17;;;;;;;6.63;3.60;;;9.80;99.90;;;;;;7389893;19;20146;-76
2022/04/21 03:33:43;;;;;;;5.33;4.10;;;10.00;99.90;;;;;;7390235;19;20134;-82
2022/04/21 03:36:09;;;;;;;5.50;4.00;;;10.20;99.90;;;;;;7392832;19;20147;-83
2022/04/21 03:38:38;;;;;;;6.30;4.30;;;10.40;99.90;;;;;;7391124;19;20144;-85
2022/04/21 03:41:05;;;;;;;8.77;3.80;;;10.50;99.90;;;;;;7388008;19;20138;-82
2022/04/21 03:43:31;;;;;;;5.70;3.90;;;10.40;99.90;;;;;;7386984;19;20150;-86
2022/04/21 03:45:56;;;;;;;5.47;3.93;;;10.30;99.90;;;;;;7389202;19;20229;-76
2022/04/21 03:48:23;;;;;;;5.20;4.07;;;10.10;99.90;;;;;;7387991;19;20138;-77
2022/04/21 03:50:49;;;;;;;7.77;3.83;;;10.30;99.90;;;;;;7392095;19;20134;-76
2022/04/21 03:53:14;;;;;;;5.33;3.90;;;10.40;99.90;;;;;;7389815;19;20645;-76
2022/04/21 03:55:40;;;;;;;5.73;3.70;;;10.40;99.90;;;;;;7390558;19;20135;-83
2022/04/21 03:58:06;;;;;;;4.77;4.03;;;10.50;99.90;;;;;;7385813;19;20227;-80
2022/04/21 04:00:32;;;;;;;5.83;4.03;;;10.50;99.90;;;;;;7385497;19;20725;-85
2022/04/21 04:02:58;;;;;;;4.10;3.70;;;10.50;99.90;;;;;;7386872;19;20147;-77
2022/04/21 04:05:24;;;;;;;8.13;4.87;;;10.60;99.90;;;;;;7386468;19;20165;-83
2022/04/21 04:10:52;;;;;;;5.17;4.67;;;10.50;99.90;;;;;;7387007;19;20156;-77
2022/04/21 04:13:22;;;;;;;4.80;4.03;;;10.20;99.90;;;;;;7388264;19;20613;-85
2022/04/21 04:15:49;;;;;;;6.83;4.03;;;9.90;99.90;;;;;;7392079;19;20137;-82
2022/04/21 04:18:18;;;;;;;4.73;4.07;;;10.10;99.90;;;;;;7395758;19;20137;-83
2022/04/21 04:20:44;;;;;;;5.63;4.07;;;10.20;99.90;;;;;;7398681;19;20161;-77
2022/04/21 04:23:09;;;;;;;5.73;4.23;;;10.20;99.90;;;;;;7402427;19;20138;-82
2022/04/21 04:25:35;;;;;;;5.17;3.93;;;10.20;99.90;;;;;;7388125;19;20162;-76
2022/04/21 04:28:04;;;;;;;6.10;4.10;;;10.10;99.90;;;;;;7385264;19;20139;-76
2022/04/21 04:30:31;;;;;;;6.43;4.57;;;10.20;99.90;;;;;;7385995;19;20213;-76
2022/04/21 04:32:57;;;;;;;7.20;4.47;;;10.30;99.90;;;;;;7385673;19;20477;-76
2022/04/21 04:35:24;;;;;;;7.27;4.23;;;10.30;99.90;;;;;;7387605;19;20142;-76
2022/04/21 04:37:52;;;;;;;7.63;4.27;;;10.20;99.90;;;;;;7388565;19;20621;-77
2022/04/21 04:40:18;;;;;;;5.43;4.47;;;10.30;99.90;;;;;;7390008;19;20147;-84
2022/04/21 04:42:44;;;;;;;5.10;4.10;;;10.20;99.90;;;;;;7388834;19;20147;-81
2022/04/21 04:47:55;;;;;;;5.67;4.30;;;10.30;99.90;;;;;;7394637;19;20132;-81
2022/04/21 04:50:21;;;;;;;6.03;5.03;;;10.30;99.90;;;;;;7400264;19;20127;-84
2022/04/21 04:52:47;;;;;;;5.83;4.90;;;10.10;99.90;;;;;;7400745;19;20137;-85
2022/04/21 04:55:13;;;;;;;4.93;4.27;;;10.10;99.90;;;;;;7399451;19;20177;-84
2022/04/21 04:57:39;;;;;;;6.80;4.53;;;10.20;99.90;;;;;;7400457;19;20122;-84
2022/04/21 05:00:08;;;;;;;7.93;4.77;;;10.20;99.90;;;;;;7398187;19;20142;-83
2022/04/21 05:02:35;;;;;;;5.10;4.30;;;10.20;99.90;;;;;;7398962;19;20134;-83
2022/04/21 05:05:01;;;;;;;5.30;4.20;;;9.80;99.90;;;;;;7408027;19;20130;-79
2022/04/21 05:07:27;;;;;;;5.57;4.40;;;9.80;99.90;;;;;;7400996;19;20134;-78
2022/04/21 05:09:53;;;;;;;5.37;4.53;;;10.10;99.90;;;;;;7407771;19;20130;-80
2022/04/21 05:12:18;;;;;;;6.03;4.63;;;10.30;99.90;;;;;;7417756;19;20126;-79
2022/04/21 05:14:44;;;;;;;10.43;4.53;;;10.30;99.90;;;;;;7413261;19;20143;-81
2022/04/21 05:17:10;;;;;;;5.23;4.63;;;10.30;99.90;;;;;;7401435;19;20150;-83
2022/04/21 05:19:36;;;;;;;8.37;5.23;;;10.30;99.90;;;;;;7401889;19;20127;-82
2022/04/21 05:22:04;;;;;;;6.07;5.03;;;10.30;99.90;;;;;;7403705;19;20586;-83
2022/04/21 05:24:34;;;;;;;5.40;4.27;;;10.50;99.90;;;;;;7399867;19;20138;-83
2022/04/21 05:27:01;;;;;;;7.00;4.80;;;10.60;99.90;;;;;;7403366;19;20137;-80
2022/04/21 05:32:13;;;;;;;5.53;4.50;;;10.50;99.90;;;;;;7404396;19;20162;-79
2022/04/21 05:34:39;;;;;;;7.57;5.37;;;10.40;99.90;;;;;;7411555;19;20263;-78
2022/04/21 05:37:06;;;;;;;7.83;5.17;;;10.40;99.90;;;;;;7407253;19;20139;-81
2022/04/21 05:39:32;;;;;;;8.00;6.10;;;10.50;99.90;;;;;;7401320;19;20209;-84
2022/04/21 05:41:58;;;;;;;10.83;7.83;;;10.30;99.90;;;;;;7402384;19;20141;-81
2022/04/21 05:44:25;;;;;;;7.43;5.10;;;10.10;99.90;;;;;;7399018;19;20656;-78
2022/04/21 05:46:52;;;;;;;6.13;5.10;;;10.30;99.90;;;;;;7402519;19;20214;-82
2022/04/21 05:49:18;;;;;;;6.37;5.13;;;10.50;99.90;;;;;;7408349;19;20138;-81
2022/04/21 05:51:46;;;;;;;6.63;5.10;;;10.60;99.90;;;;;;7401893;19;20155;-81
2022/04/21 05:54:14;;;;;;;7.80;5.20;;;10.50;99.90;;;;;;7401512;19;20191;-81
2022/04/21 05:56:40;;;;;;;8.27;5.00;;;10.40;99.90;;;;;;7400986;19;20597;-78
2022/04/21 05:59:05;;;;;;;11.13;6.77;;;10.50;99.90;;;;;;7415104;19;20159;-82
2022/04/21 06:01:31;;;;;;;5.63;4.83;;;10.70;99.90;;;;;;7395405;19;20146;-81
2022/04/21 06:03:57;;;;;;;7.20;5.63;;;10.50;99.90;;;;;;7397818;19;20429;-79
2022/04/21 06:06:23;;;;;;;7.33;6.03;;;10.60;99.90;;;;;;7391466;19;20487;-81
2022/04/21 06:08:49;;;;;;;9.80;6.57;;;10.60;99.90;;;;;;7393186;19;20494;-83
2022/04/21 06:11:16;;;;;;;6.97;5.87;;;10.60;99.90;;;;;;7398128;19;20146;-84
2022/04/21 06:13:42;;;;;;;7.67;5.93;;;10.70;99.90;;;;;;7393872;19;20135;-80
2022/04/21 06:16:09;;;;;;;12.03;6.27;;;10.70;99.90;;;;;;7399401;19;20171;-79
2022/04/21 06:18:36;;;;;;;8.17;5.80;;;10.70;99.90;;;;;;7396636;19;20201;-80
2022/04/21 06:21:03;;;;;;;10.97;6.50;;;10.70;99.90;;;;;;7397294;19;20130;-83
2022/04/21 06:23:31;;;;;;;9.33;6.60;;;10.70;99.90;;;;;;7416619;19;20140;-78
2022/04/21 06:26:00;;;;;;;7.10;6.00;;;10.80;99.90;;;;;;7393731;19;20146;-83
2022/04/21 06:28:27;;;;;;;8.67;6.37;;;10.60;99.90;;;;;;7392093;19;20210;-79
2022/04/21 06:30:54;;;;;;;7.93;6.23;;;10.70;99.90;;;;;;7390541;19;20578;-85
2022/04/21 06:33:21;;;;;;;7.70;6.27;;;10.80;99.90;;;;;;7390964;19;20153;-79
2022/04/21 06:35:47;;;;;;;8.30;6.37;;;10.80;99.90;;;;;;7390946;19;20243;-79
2022/04/21 06:38:13;;;;;;;8.00;6.73;;;11.00;99.90;;;;;;7394612;19;20214;-84
2022/04/21 06:40:39;;;;;;;9.93;6.30;;;11.10;99.90;;;;;;7387743;19;20496;-79
2022/04/21 06:48:35;;;;;;;8.93;6.80;;;11.50;99.90;;;;;;7394944;19;20146;-85
2022/04/21 06:51:05;;;;;;;7.73;6.60;;;11.70;99.90;;;;;;7405142;19;20714;-82
2022/04/21 06:53:31;;;;;;;7.37;6.37;;;11.70;99.90;;;;;;7390977;19;20131;-81
2022/04/21 06:55:57;;;;;;;7.80;6.30;;;11.80;99.90;;;;;;7394028;19;20146;-79
2022/04/21 06:58:23;;;;;;;7.57;6.17;;;12.00;99.90;;;;;;7396333;19;20131;-82
2022/04/21 07:00:49;;;;;;;8.03;6.40;;;12.40;99.30;;;;;;7390435;19;20622;-83
2022/04/21 07:03:16;;;;;;;6.43;5.30;;;12.80;98.80;;;;;;7391419;19;20638;-80
2022/04/21 07:05:44;;;;;;;7.57;6.10;;;13.10;98.20;;;;;;7389982;19;20134;-80
2022/04/21 07:08:10;;;;;;;7.23;5.70;;;13.60;97.60;;;;;;7404969;19;20143;-82
2022/04/21 07:10:37;;;;;;;7.37;5.90;;;14.10;96.80;;;;;;7392630;19;20135;-81
2022/04/21 07:13:10;;;;;;;7.97;6.40;;;14.10;96.50;;;;;;7392467;19;20142;-83
2022/04/21 07:15:36;;;;;;;8.90;6.13;;;14.40;96.00;;;;;;7392122;19;20155;-80
2022/04/21 07:18:03;;;;;;;7.30;6.33;;;14.60;95.70;;;;;;7391722;19;20589;-84
2022/04/21 07:20:29;;;;;;;6.70;5.80;;;14.80;95.60;;;;;;7389557;19;20135;-80
2022/04/21 07:22:55;;;;;;;6.40;5.55;;;14.90;95.40;;;;;;7389950;19;20173;-79
2022/04/21 07:25:21;;;;;;;6.63;5.67;;;15.10;94.90;;;;;;7390924;19;20141;-80
2022/04/21 07:27:47;;;;;;;9.50;6.17;;;15.10;94.80;;;;;;7396432;19;20186;-83
2022/04/21 07:30:13;;;;;;;8.13;6.20;;;15.20;94.60;;;;;;7397277;19;20169;-83
2022/04/21 07:32:39;;;;;;;7.50;5.93;;;15.10;94.40;;;;;;7392589;19;20137;-84
2022/04/21 07:35:05;;;;;;;7.80;6.20;;;15.00;94.40;;;;;;7391407;19;20214;-83
2022/04/21 07:37:33;;;;;;;9.60;6.22;;;15.10;94.50;;;;;;7394190;19;20167;-80
2022/04/21 07:40:00;;;;;;;6.25;5.63;;;15.40;94.10;;;;;;7390721;19;20151;-83
2022/04/21 07:42:27;;;;;;;7.17;5.60;;;15.20;94.20;;;;;;7390817;19;20166;-81
2022/04/21 07:44:53;;;;;;;7.43;6.00;;;15.20;94.30;;;;;;7395834;19;20127;-85
2022/04/21 07:47:19;;;;;;;6.32;5.20;;;15.50;94.20;;;;;;7390255;19;20143;-83
2022/04/21 07:49:45;;;;;;;6.53;5.88;;;15.80;93.70;;;;;;7398393;19;20625;-80
2022/04/21 07:54:55;;;;;;;8.15;5.45;;;15.70;93.50;;;;;;7392292;19;20139;-81
2022/04/21 07:57:21;;;;;;;7.30;5.68;;;15.30;93.70;;;;;;7388544;19;20134;-81
2022/04/21 07:59:47;;;;;;;7.93;6.28;;;15.60;93.60;;;;;;7387559;19;20162;-82
2022/04/21 08:02:16;;;;;;;5.93;5.00;;;15.60;93.20;;;;;;7388599;19;20131;-82
2022/04/21 08:04:44;;;;;;;6.97;5.32;;;15.60;93.40;;;;;;7392430;19;20583;-81
2022/04/21 08:07:10;;;;;;;6.78;5.90;;;15.60;93.40;;;;;;7388594;19;20139;-80
2022/04/21 08:09:37;;;;;;;7.85;5.75;;;15.80;93.20;;;;;;7391225;19;20158;-83
2022/04/21 08:12:04;;;;;;;5.72;4.40;;;16.10;92.90;;;;;;7403997;19;20445;-81
2022/04/21 08:14:30;;;;;;;6.60;5.45;;;16.10;92.70;;;;;;7397886;19;20139;-81
2022/04/21 08:16:56;;;;;;;5.97;5.35;;;16.10;92.40;;;;;;7390977;19;20126;-82
2022/04/21 08:19:22;;;;;;;5.60;4.90;;;16.00;92.50;;;;;;7388145;19;20137;-81
2022/04/21 08:21:47;;;;;;;7.30;5.00;;;15.90;92.60;;;;;;7404806;19;20185;-81
2022/04/21 08:32:45;;;;;;;6.38;5.30;;;16.10;92.30;;;;;;7396971;19;20227;-80
2022/04/21 08:35:15;;;;;;;6.30;5.32;;;16.00;92.30;;;;;;7391843;19;20139;-79
2022/04/21 08:37:44;;;;;;;7.13;5.13;;;16.40;91.60;;;;;;7391184;19;20478;-83
2022/04/21 08:40:10;;;;;;;5.82;5.22;;;16.40;91.80;;;;;;7386127;19;20198;-79
2022/04/21 08:42:40;;;;;;;6.45;5.18;;;16.30;91.90;;;;;;7386447;19;20181;-82
2022/04/21 08:45:08;;;;;;;6.25;5.22;;;16.30;92.10;;;;;;7388828;19;20574;-81
2022/04/21 08:47:35;;;;;;;6.22;4.60;;;16.20;92.10;;;;;;7389590;19;20127;-83
2022/04/21 08:50:13;;;;;;;5.47;4.68;;;16.20;92.00;;;;;;7400105;19;20178;-83
2022/04/21 08:52:41;;;;;;;7.88;5.80;;;16.10;92.10;;;;;;7395991;19;20165;-81
2022/04/21 08:55:08;;;;;;;7.55;4.80;;;15.90;92.20;;;;;;7393016;19;20149;-81
2022/04/21 08:57:37;;;;;;;5.22;4.72;;;15.70;92.30;;;;;;7394951;19;20238;-81
2022/04/21 09:00:08;;;;;;;7.55;4.88;;;15.60;92.40;;;;;;7396857;19;20127;-80
2022/04/21 09:02:42;;;;;;;5.55;4.72;;;15.60;92.80;;;;;;7395831;19;20164;-84
2022/04/21 09:05:11;;;;;;;5.07;4.57;;;16.00;92.30;;;;;;7400325;19;20594;-82
2022/04/21 09:07:47;;;;;;;6.43;5.00;;;16.30;92.00;;;;;;7396159;19;20142;-81
2022/04/21 09:10:15;;;;;;;5.53;4.88;;;16.40;91.80;;;;;;7403837;19;20130;-82
2022/04/21 09:12:47;;;;;;;8.05;4.95;;;16.20;91.50;;;;;;7393809;19;20150;-83
2022/04/21 09:15:17;;;;;;;5.57;4.70;;;16.20;92.20;;;;;;7392864;19;20167;-80
2022/04/21 09:17:53;;;;;;;6.15;5.03;;;16.30;92.00;;;;;;7388051;19;20593;-83
2022/04/21 09:20:21;;;;;;;9.27;5.38;;;16.30;91.70;;;;;;7384474;19;20158;-79
2022/04/21 09:22:54;;;;;;;7.13;4.78;;;16.20;91.50;;;;;;7386567;19;20483;-82
2022/04/21 09:25:29;;;;;;;6.38;5.00;;;16.10;91.80;;;;;;7386982;19;20513;-81
2022/04/21 09:27:56;;;;;;;5.75;5.15;;;16.40;91.40;;;;;;7386740;19;20138;-83
2022/04/21 09:30:22;;;;;;;5.70;4.57;;;16.30;91.20;;;;;;7401431;19;20135;-80
2022/04/21 09:32:56;;;;;;;6.40;4.85;;;16.10;91.60;;;;;;7392642;19;20145;-80
2022/04/21 09:35:26;;;;;;;5.72;5.00;;;16.00;91.70;;;;;;7394609;19;20499;-80
2022/04/21 09:37:54;;;;;;;7.70;5.65;;;16.10;91.90;;;;;;7398098;19;20135;-80
2022/04/21 09:40:29;;;;;;;6.07;5.35;;;16.20;92.00;;;;;;7395006;19;20170;-80
2022/04/21 09:43:00;;;;;;;8.30;4.40;;;16.30;91.60;;;;;;7393238;19;20146;-83
2022/04/21 09:48:28;;;;;;;6.10;4.97;;;16.20;92.00;;;;;;7393768;19;20153;-80
2022/04/21 09:51:06;;;;;;;5.22;4.28;;;16.30;91.00;;;;;;7405309;19;20161;-78
2022/04/21 09:53:54;;;;;;;6.57;4.35;;;16.10;91.20;;;;;;7400256;19;20657;-80
2022/04/21 09:56:36;;;;;;;5.05;4.55;;;16.20;91.20;;;;;;7398259;19;20198;-78
2022/04/21 09:59:10;;;;;;;3.80;3.40;;;16.40;90.80;;;;;;7392971;19;20226;-78
2022/04/21 10:01:41;;;;;;;4.95;3.80;;;16.60;90.40;;;;;;7394192;19;20589;-82
2022/04/21 10:04:09;;;;;;;5.35;4.22;;;16.60;90.80;;;;;;7397733;19;20594;-79
2022/04/21 10:06:38;;;;;;;4.82;4.30;;;16.60;90.50;;;;;;7393029;19;20142;-80
2022/04/21 10:09:05;;;;;;;5.40;4.22;;;16.60;90.70;;;;;;7391646;19;20597;-79
2022/04/21 10:11:31;;;;;;;4.70;4.03;;;16.50;90.30;;;;;;7397769;19;20673;-80
2022/04/21 10:13:58;;;;;;;4.40;4.00;;;16.50;90.30;;;;;;7411725;19;20133;-80
2022/04/21 10:16:30;;;;;;;4.60;3.92;;;16.50;90.40;;;;;;7397594;19;20193;-82
2022/04/21 10:18:58;;;;;;;4.45;3.75;;;16.30;90.80;;;;;;7396661;19;20143;-81
2022/04/21 10:21:32;;;;;;;6.63;4.20;;;16.20;91.10;;;;;;7404391;19;20142;-81
2022/04/21 10:23:59;;;;;;;5.18;4.10;;;16.20;91.30;;;;;;7396089;19;20139;-82
2022/04/21 10:26:38;;;;;;;4.75;4.22;;;16.20;91.10;;;;;;7393364;19;20138;-81
2022/04/21 10:29:22;;;;;;;5.13;4.40;;;16.20;91.10;;;;;;7392071;19;20134;-79
2022/04/21 10:31:55;;;;;;;4.13;3.70;;;16.20;91.10;;;;;;7394170;19;20149;-81
2022/04/21 10:34:27;;;;;;;4.20;3.33;;;16.20;91.20;;;;;;7395720;19;20134;-83
2022/04/21 10:37:19;;;;;;;4.00;3.40;;;16.20;91.20;;;;;;7403312;19;20639;-78
2022/04/21 10:40:09;;;;;;;3.92;3.53;;;16.10;91.50;;;;;;7399254;19;20130;-79
2022/04/21 10:43:03;;;;;;;4.07;3.50;;;16.00;91.60;;;;;;7405947;19;20146;-79
2022/04/21 10:45:33;;;;;;;5.22;3.92;;;16.00;91.70;;;;;;7401144;19;20156;-83
2022/04/21 10:48:13;;;;;;;6.05;3.22;;;16.10;91.60;;;;;;7401632;19;20134;-80
2022/04/21 10:50:40;;;;;;;3.83;3.42;;;16.10;91.70;;;;;;7395913;19;20134;-80
2022/04/21 10:58:37;;;;;;;4.22;3.35;;;16.40;91.40;;;;;;7398191;19;20138;-80
2022/04/21 11:01:08;;;;;;;3.25;2.95;;;16.60;91.40;;;;;;7392184;19;20514;-78
2022/04/21 11:03:33;;;;;;;3.47;2.85;;;16.60;91.40;;;;;;7400149;19;20146;-79
2022/04/21 11:06:17;;;;;;;3.08;2.78;;;16.70;91.40;;;;;;7392439;19;20184;-83
2022/04/21 11:08:43;;;;;;;3.00;2.70;;;16.80;91.20;;;;;;7391313;19;20182;-80
2022/04/21 11:11:13;;;;;;;3.17;2.72;;;16.90;91.30;;;;;;7390142;19;20138;-80
2022/04/21 11:13:50;;;;;;;3.35;2.65;;;17.00;91.00;;;;;;7389284;19;20150;-79
2022/04/21 11:16:41;;;;;;;2.95;2.70;;;17.00;91.00;;;;;;7398945;19;20138;-80
2022/04/21 11:19:25;;;;;;;2.67;2.47;;;16.80;91.00;;;;;;7388312;19;20146;-80
2022/04/21 11:21:52;;;;;;;4.00;2.70;;;16.80;91.10;;;;;;7401046;19;20618;-78
2022/04/21 11:24:18;;;;;;;2.83;2.30;;;16.90;91.00;;;;;;7389718;19;20127;-80
2022/04/21 11:26:44;;;;;;;2.60;2.28;;;16.90;91.00;;;;;;7388463;19;20193;-81
2022/04/21 11:29:10;;;;;;;2.88;2.35;;;17.00;90.90;;;;;;7388459;19;20170;-82
2022/04/21 11:31:36;;;;;;;3.00;2.65;;;17.10;91.00;;;;;;7390012;19;20170;-79
2022/04/21 11:34:02;;;;;;;2.92;2.30;;;17.00;91.00;;;;;;7390150;19;20123;-80
2022/04/21 11:36:37;;;;;;;3.17;2.45;;;16.90;91.10;;;;;;7396718;19;20151;-80
2022/04/21 11:39:12;;;;;;;5.28;2.25;;;16.90;91.20;;;;;;7391595;19;20510;-83
2022/04/21 11:41:44;;;;;;;2.85;2.20;;;16.90;91.40;;;;;;7389462;19;20130;-79
2022/04/21 11:44:11;;;;;;;2.40;1.70;;;17.10;91.30;;;;;;7401869;19;20149;-81
2022/04/21 11:46:39;;;;;;;2.45;2.22;;;17.30;91.00;;;;;;7389442;19;20154;-82
2022/04/21 11:49:05;;;;;;;3.08;2.60;;;17.50;90.70;;;;;;7389426;19;20139;-80
2022/04/21 11:51:32;;;;;;;2.50;2.00;;;17.60;90.60;;;;;;7391774;19;20151;-83
2022/04/21 11:54:07;;;;;;;2.10;1.70;;;17.60;90.60;;;;;;7388692;19;20647;-80
2022/04/21 11:56:33;;;;;;;2.70;1.75;;;17.60;90.50;;;;;;7392395;19;20133;-79
2022/04/21 11:59:06;;;;;;;1.55;1.45;;;17.40;90.70;;;;;;7400559;19;20187;-80
2022/04/21 12:07:03;;;;;;;2.63;1.65;;;17.30;90.30;;;;;;7392903;19;20218;-79
2022/04/21 12:09:34;;;;;;;1.17;1.08;;;17.40;90.20;;;;;;7386969;19;20149;-81
2022/04/21 12:12:02;;;;;;;1.83;1.40;;;17.30;90.20;;;;;;7386535;19;20172;-82
2022/04/21 12:14:29;;;;;;;1.50;1.40;;;17.30;90.20;;;;;;7387985;19;20147;-78
2022/04/21 12:17:06;;;;;;;1.40;1.25;;;17.30;90.40;;;;;;7387009;19;20131;-77
2022/04/21 12:19:39;;;;;;;1.67;1.20;;;17.10;90.10;;;;;;7399276;19;20123;-79
2022/04/21 12:22:13;;;;;;;2.20;1.23;;;17.30;90.10;;;;;;7401502;19;20669;-80
2022/04/21 12:24:43;;;;;;;2.55;1.30;;;17.40;90.10;;;;;;7386562;19;20152;-79
2022/04/21 12:27:14;;;;;;;0.98;0.88;;;17.40;89.00;;;;;;7392097;19;20143;-78
2022/04/21 12:29:59;;;;;;;1.25;1.08;;;17.40;88.40;;;;;;7387125;19;20166;-78
2022/04/21 12:32:32;;;;;;;1.20;1.00;;;17.60;87.60;;;;;;7388700;19;20130;-79
2022/04/21 12:35:03;;;;;;;1.58;0.82;;;17.80;88.10;;;;;;7386967;19;20539;-80
2022/04/21 12:37:33;;;;;;;1.40;1.17;;;17.80;88.40;;;;;;7388756;19;20708;-81
2022/04/21 12:40:01;;;;;;;1.60;1.50;;;17.80;88.60;;;;;;7385572;19;20150;-82
2022/04/21 12:42:30;;;;;;;1.13;1.00;;;17.70;90.00;;;;;;7386252;19;20150;-81
2022/04/21 12:44:57;;;;;;;1.42;1.20;;;17.90;88.40;;;;;;7404459;19;20139;-81
2022/04/21 12:47:23;;;;;;;0.90;0.80;;;18.10;88.30;;;;;;7386931;19;20135;-81
2022/04/21 12:50:08;;;;;;;1.50;0.95;;;18.10;87.70;;;;;;7389405;19;20146;-81
2022/04/21 12:52:41;;;;;;;1.15;0.95;;;18.00;88.30;;;;;;7388160;19;20134;-81
2022/04/21 12:55:12;;;;;;;0.98;0.80;;;18.00;88.50;;;;;;7386624;19;20138;-81
2022/04/21 12:57:40;;;;;;;3.03;0.90;;;18.00;87.20;;;;;;7386195;19;20131;-82
2022/04/21 13:00:10;;;;;;;0.90;0.80;;;18.00;87.20;;;;;;7385102;19;20158;-82
2022/04/21 13:02:36;;;;;;;1.65;1.10;;;18.00;86.50;;;;;;7386020;19;20142;-78
2022/04/21 13:05:03;;;;;;;0.82;0.80;;;18.10;86.10;;;;;;7391988;19;20134;-79
2022/04/21 13:07:29;;;;;;;1.20;1.08;;;18.10;86.40;;;;;;7393369;19;20138;-79
2022/04/21 13:09:55;;;;;;;1.80;1.30;;;18.00;87.20;;;;;;7393348;19;20163;-80
2022/04/21 13:12:21;;;;;;;1.27;0.95;;;17.90;88.00;;;;;;7394022;19;20137;-79
2022/04/21 13:14:47;;;;;;;1.42;1.10;;;17.80;88.00;;;;;;7395592;19;20134;-79
2022/04/21 13:17:13;;;;;;;1.17;0.90;;;17.80;87.90;;;;;;7392713;19;20154;-80
2022/04/21 13:19:39;;;;;;;1.75;1.35;;;17.90;87.70;;;;;;7392492;19;20127;-78
2022/04/21 13:22:05;;;;;;;1.80;1.20;;;18.10;88.00;;;;;;7399119;19;20135;-81
2022/04/21 13:24:34;;;;;;;1.95;1.33;;;18.00;89.00;;;;;;7401645;19;20155;-80
2022/04/21 13:27:01;;;;;;;1.80;1.42;;;18.20;89.20;;;;;;7392816;19;20154;-80
2022/04/21 13:29:27;;;;;;;1.38;1.27;;;18.20;88.80;;;;;;7391950;19;20570;-77
2022/04/21 13:34:38;;;;;;;3.17;1.45;;;18.20;88.20;;;;;;7394856;19;20570;-79
2022/04/21 13:37:04;;;;;;;1.33;1.00;;;18.10;88.30;;;;;;7393008;19;20162;-79
2022/04/21 13:39:31;;;;;;;1.98;1.35;;;18.20;87.80;;;;;;7390816;19;20160;-79
2022/04/21 13:41:57;;;;;;;2.03;1.40;;;18.30;87.70;;;;;;7394328;19;20674;-81
2022/04/21 13:44:23;;;;;;;2.15;1.30;;;18.30;87.80;;;;;;7401277;19;20138;-79
2022/04/21 13:46:49;;;;;;;1.75;1.60;;;18.20;87.30;;;;;;7395124;19;20666;-79
2022/04/21 13:49:14;;;;;;;1.65;1.33;;;18.10;87.60;;;;;;7393565;19;20201;-77
2022/04/21 13:51:41;;;;;;;1.50;1.20;;;17.90;88.00;;;;;;7399581;19;20130;-78
2022/04/21 13:54:07;;;;;;;1.30;1.20;;;17.80;88.50;;;;;;7391861;19;20134;-79